Time;durP1;ratioP1;P1;durP2;ratioP2;P2;SDS_P1;SDS_P2;PMS_P1;PMS_P2;Temp;Humidity;BMP_temperature;BMP_pressure;BME280_temperature;BME280_humidity;BME280_pressure;Samples;Min_cycle;Max_cycle;Signal;HPM_P1;HPM_P2
2022/01/28 00:00:37;;;;;;;38.83;16.95;;;;;;;2.78;58.21;100405.34;5092193;28;20028;-48
2022/01/28 00:03:08;;;;;;;37.33;17.60;;;;;;;2.93;57.96;100399.06;5092294;28;20055;-48
2022/01/28 00:05:36;;;;;;;39.90;18.40;;;;;;;2.85;57.98;100398.78;5092079;28;20076;-48
2022/01/28 00:08:04;;;;;;;34.80;15.05;;;;;;;2.82;58.73;100405.94;5092150;28;20077;-49
2022/01/28 00:10:32;;;;;;;46.58;19.20;;;;;;;3.02;58.90;100402.78;5092045;28;20415;-48
2022/01/28 00:13:20;;;;;;;44.85;22.38;;;;;;;3.18;58.04;100407.72;5092075;28;20016;-49
2022/01/28 00:36:29;;;;;;;34.60;16.73;;;;;;;3.16;57.72;100414.78;5091945;28;20552;-49
2022/01/28 00:38:09;;;;;;;35.30;17.17;;;;;;;3.86;57.07;100398.38;5091853;28;20030;-48
2022/01/28 00:40:25;;;;;;;33.30;18.35;;;;;;;3.96;56.87;100401.13;5089249;28;20044;-48
2022/01/28 00:42:51;;;;;;;47.30;25.90;;;;;;;3.92;56.97;100397.91;5091716;28;20055;-48
2022/01/28 00:45:17;;;;;;;40.45;22.48;;;;;;;4.04;56.92;100401.38;5091593;28;20502;-49
2022/01/28 00:47:44;;;;;;;42.65;18.38;;;;;;;4.13;56.54;100398.09;5091718;28;20031;-48
2022/01/28 00:50:10;;;;;;;37.10;19.13;;;;;;;4.17;56.06;100399.50;5091639;28;20036;-49
2022/01/28 00:52:36;;;;;;;36.08;19.77;;;;;;;4.19;56.00;100408.00;5091664;28;20367;-49
2022/01/28 00:55:03;;;;;;;40.15;19.25;;;;;;;4.24;56.04;100412.03;5091600;28;20023;-49
2022/01/28 00:57:28;;;;;;;56.80;25.30;;;;;;;4.23;55.98;100413.81;5091660;28;20024;-49
2022/01/28 00:59:54;;;;;;;34.00;18.42;;;;;;;4.16;55.88;100415.19;5091552;28;20020;-48
2022/01/28 01:02:20;;;;;;;44.28;25.02;;;;;;;4.25;56.04;100416.28;5090192;28;20062;-49
2022/01/28 01:04:46;;;;;;;39.65;18.83;;;;;;;4.52;55.57;100416.75;5090106;28;20028;-49
2022/01/28 01:07:11;;;;;;;459.50;367.75;;;;;;;4.73;55.36;100409.09;5091503;28;20066;-48
2022/01/28 01:09:37;;;;;;;114.22;89.47;;;;;;;4.72;54.90;100404.00;5091455;28;20367;-49
2022/01/28 01:12:03;;;;;;;121.03;86.03;;;;;;;4.40;55.48;100404.72;5091448;28;20433;-48
2022/01/28 01:14:29;;;;;;;80.00;50.38;;;;;;;4.22;55.79;100393.13;5091481;28;20020;-48
2022/01/28 01:19:31;;;;;;;39.28;21.33;;;;;;;3.79;56.68;100392.81;5091477;28;20052;-48
2022/01/28 01:21:59;;;;;;;37.65;20.33;;;;;;;3.98;56.60;100394.88;5091325;28;20024;-49
2022/01/28 01:24:28;;;;;;;39.95;19.55;;;;;;;4.09;56.09;100396.66;5091357;28;20439;-49
2022/01/28 01:26:54;;;;;;;41.22;22.67;;;;;;;4.08;55.99;100400.19;5091218;28;20074;-48
2022/01/28 01:29:22;;;;;;;40.60;22.80;;;;;;;4.02;56.34;100397.22;5091321;28;20032;-48
2022/01/28 01:31:48;;;;;;;38.85;21.05;;;;;;;4.16;56.18;100400.44;5091266;28;20016;-48
2022/01/28 01:34:18;;;;;;;45.30;23.80;;;;;;;4.36;56.02;100408.50;5091288;28;20020;-48
2022/01/28 01:36:44;;;;;;;43.95;21.58;;;;;;;4.53;55.58;100399.41;5091085;28;20562;-48
2022/01/28 01:42:42;;;;;;;51.33;25.45;;;;;;;4.45;55.22;100407.78;5094527;28;20050;-48
2022/01/28 01:45:47;;;;;;;40.22;20.77;;;;;;;4.44;55.20;100403.53;5094733;28;20032;-47
2022/01/28 01:53:30;;;;;;;48.40;24.33;;;;;;;4.50;55.62;100400.44;5094953;28;20157;-48
2022/01/28 01:55:56;;;;;;;75.60;44.47;;;;;;;4.50;55.72;100400.44;5094523;28;20024;-48
2022/01/28 01:58:29;;;;;;;47.58;25.75;;;;;;;4.46;54.95;100406.84;5094544;28;20149;-49
2022/01/28 02:00:55;;;;;;;50.28;24.90;;;;;;;4.26;55.88;100399.75;5093167;28;20414;-49
2022/01/28 02:03:21;;;;;;;45.35;25.05;;;;;;;4.38;56.12;100404.81;5094446;28;20028;-48
2022/01/28 02:05:47;;;;;;;47.20;23.73;;;;;;;4.58;55.52;100399.88;5094205;28;20074;-50
2022/01/28 02:08:13;;;;;;;49.30;23.95;;;;;;;4.56;54.85;100399.97;5094367;28;20441;-48
2022/01/28 02:10:38;;;;;;;51.10;23.60;;;;;;;4.33;55.58;100401.75;5094262;28;20024;-49
2022/01/28 02:13:04;;;;;;;47.90;25.02;;;;;;;4.33;55.69;100403.53;5094244;28;20024;-48
2022/01/28 02:15:30;;;;;;;54.50;26.13;;;;;;;4.14;55.54;100404.09;5094206;28;20409;-49
2022/01/28 02:17:59;;;;;;;59.88;25.48;;;;;;;3.94;55.78;100393.47;5094128;28;20017;-49
2022/01/28 02:20:32;;;;;;;55.38;26.02;;;;;;;3.92;56.22;100397.09;5094123;28;20052;-48
2022/01/28 02:22:57;;;;;;;55.22;29.02;;;;;;;3.91;56.25;100393.69;5094152;28;20024;-48
2022/01/28 02:25:26;;;;;;;49.63;24.73;;;;;;;3.89;56.38;100392.97;5093908;28;20073;-49
2022/01/28 02:27:54;;;;;;;49.40;24.48;;;;;;;3.87;56.23;100386.25;5093976;28;20024;-48
2022/01/28 02:30:20;;;;;;;49.85;23.67;;;;;;;3.82;56.40;100377.94;5093916;28;20189;-48
2022/01/28 02:32:48;;;;;;;48.65;23.85;;;;;;;3.87;56.70;100375.84;5092536;28;20024;-48
2022/01/28 02:35:13;;;;;;;51.15;25.25;;;;;;;3.97;56.61;100363.81;5093832;28;20439;-48
2022/01/28 02:37:39;;;;;;;48.45;22.52;;;;;;;3.73;56.69;100356.09;5093765;28;20028;-48
2022/01/28 02:40:06;;;;;;;47.35;24.55;;;;;;;3.66;56.82;100366.09;5093659;28;20024;-49
2022/01/28 02:45:25;;;;;;;46.38;22.05;;;;;;;3.75;57.32;100351.63;5093821;28;20028;-47
2022/01/28 02:47:56;;;;;;;43.80;20.02;;;;;;;3.86;56.41;100350.81;5093516;28;20055;-48
2022/01/28 02:50:23;;;;;;;52.97;29.20;;;;;;;3.75;56.56;100359.41;5093594;28;20093;-47
2022/01/28 02:53:02;;;;;;;44.45;23.80;;;;;;;3.68;56.61;100363.41;5093494;28;20024;-48
2022/01/28 02:55:30;;;;;;;39.15;18.83;;;;;;;3.60;57.22;100357.03;5092147;28;20029;-47
2022/01/28 02:58:13;;;;;;;42.88;21.10;;;;;;;3.54;56.95;100352.28;5093406;28;20031;-49
2022/01/28 03:00:40;;;;;;;43.05;20.98;;;;;;;3.64;57.19;100344.63;5093310;28;20025;-48
2022/01/28 03:03:07;;;;;;;44.90;22.80;;;;;;;3.75;57.03;100346.44;5093295;28;20055;-49
2022/01/28 03:05:34;;;;;;;38.55;19.73;;;;;;;3.86;56.63;100351.63;5093158;28;20024;-49
2022/01/28 03:08:04;;;;;;;53.75;30.80;;;;;;;3.88;56.59;100352.34;5093171;28;20036;-48
2022/01/28 03:15:35;;;;;;;44.45;20.80;;;;;;;3.60;56.31;100349.25;5093037;28;20067;-48
2022/01/28 03:18:12;;;;;;;36.88;18.65;;;;;;;3.57;56.71;100351.22;5092967;28;20413;-50
2022/01/28 03:23:19;;;;;;;37.75;21.48;;;;;;;3.96;56.44;100355.22;5092967;28;20110;-49
2022/01/28 03:25:46;;;;;;;39.20;19.73;;;;;;;4.08;55.93;100353.44;5091371;28;20115;-49
2022/01/28 03:28:14;;;;;;;40.85;21.10;;;;;;;4.15;55.91;100344.22;5091457;28;20057;-48
2022/01/28 03:30:40;;;;;;;38.55;21.20;;;;;;;4.24;55.57;100345.28;5092704;28;20019;-48
2022/01/28 03:33:05;;;;;;;36.80;20.02;;;;;;;4.22;55.14;100336.78;5092780;28;20020;-49
2022/01/28 03:35:34;;;;;;;35.65;18.80;;;;;;;4.10;55.31;100335.94;5092580;28;20443;-49
2022/01/28 03:38:02;;;;;;;33.47;18.67;;;;;;;4.05;55.66;100334.66;5092632;28;20089;-49
2022/01/28 03:40:35;;;;;;;35.10;18.83;;;;;;;4.04;55.44;100338.19;5092276;28;20017;-49
2022/01/28 03:43:02;;;;;;;33.08;19.80;;;;;;;4.09;55.37;100329.13;5092635;28;20032;-49
2022/01/28 03:45:28;;;;;;;32.97;19.63;;;;;;;4.03;55.92;100332.19;5092394;28;20012;-49
2022/01/28 03:47:53;;;;;;;39.08;19.08;;;;;;;3.93;56.05;100339.84;5092507;28;20030;-48
2022/01/28 03:50:20;;;;;;;31.90;19.45;;;;;;;3.99;56.34;100341.16;5092466;28;20020;-49
2022/01/28 03:52:45;;;;;;;38.53;18.40;;;;;;;4.01;56.22;100349.66;5092426;28;20117;-49
2022/01/28 03:55:11;;;;;;;42.45;23.25;;;;;;;3.87;56.38;100347.28;5092344;28;20024;-49
2022/01/28 03:57:37;;;;;;;34.85;18.27;;;;;;;3.91;56.24;100346.94;5092243;28;20031;-48
2022/01/28 04:00:07;;;;;;;39.63;20.33;;;;;;;3.67;56.74;100336.63;5091796;28;20570;-48
2022/01/28 04:02:37;;;;;;;37.38;19.55;;;;;;;3.61;57.45;100339.69;5092313;28;20103;-48
2022/01/28 04:13:27;;;;;;;51.83;28.05;;;;;;;4.10;57.58;100332.53;5049683;28;20556;-48
2022/01/28 04:18:25;;;;;;;51.60;26.73;;;;;;;4.56;57.40;100350.56;5049589;28;20036;-48
2022/01/28 04:20:51;;;;;;;49.90;26.48;;;;;;;4.63;57.68;100365.69;5049529;28;20530;-48
2022/01/28 04:23:18;;;;;;;48.75;27.45;;;;;;;4.56;57.16;100370.56;5032761;28;20021;-48
2022/01/28 04:25:44;;;;;;;52.08;26.48;;;;;;;4.38;57.38;100365.84;5049301;28;20549;-48
2022/01/28 04:28:10;;;;;;;60.85;30.48;;;;;;;4.25;58.20;100378.13;5049518;28;20040;-49
2022/01/28 04:30:36;;;;;;;55.58;27.95;;;;;;;4.27;58.92;100362.44;5049374;28;20210;-48
2022/01/28 04:33:01;;;;;;;59.50;28.23;;;;;;;4.31;59.09;100392.44;5049444;28;20029;-48
2022/01/28 04:35:27;;;;;;;56.55;28.38;;;;;;;4.31;58.93;100392.44;5049383;28;20028;-48
2022/01/28 04:38:45;;;;;;;55.42;26.65;;;;;;;4.05;59.50;100399.63;5049354;28;20037;-48
2022/01/28 04:40:51;;;;;;;67.72;35.42;;;;;;;3.97;59.69;100389.81;5041877;28;20392;-48
2022/01/28 04:43:24;;;;;;;57.63;28.90;;;;;;;3.89;61.06;100399.94;5051626;28;20074;-48
2022/01/28 04:48:30;;;;;;;52.08;27.17;;;;;;;3.89;62.27;100392.16;5091686;28;20028;-48
2022/01/28 04:56:17;;;;;;;60.45;31.08;;;;;;;3.81;64.62;100405.69;5091633;28;20032;-48
2022/01/28 05:14:28;;;;;;;72.55;40.10;;;;;;;3.33;64.40;100421.34;5094782;28;20039;-48
2022/01/28 05:17:20;;;;;;;59.75;32.15;;;;;;;3.19;64.53;100423.13;5095090;28;20037;-48
2022/01/28 05:25:48;;;;;;;59.45;28.15;;;;;;;3.51;65.03;100413.97;5095374;28;20047;-48
2022/01/28 05:28:18;;;;;;;61.50;28.45;;;;;;;3.74;64.76;100414.88;5095148;28;20036;-48
2022/01/28 05:30:43;;;;;;;54.97;25.63;;;;;;;3.96;64.04;100417.56;5095082;28;20031;-48
2022/01/28 05:33:09;;;;;;;50.28;26.45;;;;;;;4.22;63.18;100425.13;5095264;28;20085;-48
2022/01/28 05:35:35;;;;;;;54.15;26.83;;;;;;;4.34;62.43;100423.38;5094879;28;20095;-48
2022/01/28 05:38:00;;;;;;;53.13;25.05;;;;;;;4.43;62.13;100434.84;5094893;28;20031;-47
2022/01/28 05:40:26;;;;;;;53.05;26.17;;;;;;;4.63;61.57;100435.91;5094617;28;20444;-48
2022/01/28 05:42:52;;;;;;;46.85;24.00;;;;;;;4.86;61.55;100434.13;5094879;28;20103;-47
2022/01/28 05:45:18;;;;;;;46.47;25.42;;;;;;;5.04;60.64;100442.25;5094729;28;20024;-48
2022/01/28 05:47:43;;;;;;;50.95;25.05;;;;;;;5.10;59.90;100444.38;5094729;28;20498;-47
2022/01/28 05:50:09;;;;;;;48.30;24.52;;;;;;;5.09;59.59;100440.09;5093383;28;20028;-48
2022/01/28 05:52:35;;;;;;;47.60;26.75;;;;;;;5.09;59.82;100443.56;5094672;28;20030;-47
2022/01/28 05:55:01;;;;;;;55.00;26.90;;;;;;;5.08;59.58;100446.28;5094635;28;20107;-49
2022/01/28 05:57:26;;;;;;;56.03;27.08;;;;;;;5.07;59.49;100450.66;5094583;28;20028;-49
2022/01/28 05:59:52;;;;;;;51.30;27.38;;;;;;;5.10;59.66;100445.19;5094515;28;20016;-48
2022/01/28 06:02:18;;;;;;;52.33;27.33;;;;;;;5.19;59.20;100454.03;5094452;28;20401;-49
2022/01/28 06:04:45;;;;;;;60.92;28.38;;;;;;;5.15;58.45;100455.25;5094451;28;20031;-48
2022/01/28 06:07:11;;;;;;;73.75;38.45;;;;;;;4.96;59.16;100456.69;5094308;28;20371;-48
2022/01/28 06:09:37;;;;;;;59.60;31.33;;;;;;;4.91;59.27;100460.59;5094314;28;20024;-47
2022/01/28 06:12:03;;;;;;;55.85;28.23;;;;;;;4.82;59.47;100456.94;5094215;28;20486;-47
2022/01/28 06:14:28;;;;;;;59.83;27.75;;;;;;;4.99;59.69;100453.03;5094210;28;20024;-48
2022/01/28 06:16:54;;;;;;;56.78;28.42;;;;;;;4.99;59.18;100451.25;5094166;28;20022;-47
2022/01/28 06:19:20;;;;;;;61.65;27.23;;;;;;;5.06;59.15;100449.00;5094150;28;20070;-47
2022/01/28 06:21:45;;;;;;;57.20;27.67;;;;;;;5.16;59.11;100442.09;5094068;28;20103;-48
2022/01/28 06:24:11;;;;;;;60.30;29.67;;;;;;;5.21;59.06;100446.94;5093626;28;20183;-48
2022/01/28 06:26:40;;;;;;;56.17;27.77;;;;;;;5.21;58.47;100452.16;5093938;28;20016;-49
2022/01/28 06:29:06;;;;;;;64.60;28.83;;;;;;;5.08;58.25;100457.50;5093979;28;20023;-49
2022/01/28 06:31:32;;;;;;;56.08;27.92;;;;;;;4.92;58.64;100454.47;5093881;28;20020;-49
2022/01/28 06:33:58;;;;;;;62.85;30.58;;;;;;;4.81;59.33;100468.31;5093883;28;20027;-47
2022/01/28 06:36:24;;;;;;;66.07;28.98;;;;;;;4.92;59.10;100462.25;5093802;28;20425;-48
2022/01/28 06:38:49;;;;;;;60.47;26.58;;;;;;;5.00;59.04;100462.50;5092434;28;20049;-49
2022/01/28 06:41:15;;;;;;;61.45;26.77;;;;;;;5.15;58.42;100471.69;5093613;28;20493;-48
2022/01/28 06:43:41;;;;;;;56.13;26.10;;;;;;;5.19;58.14;100462.69;5093709;28;20028;-49
2022/01/28 06:46:07;;;;;;;56.25;27.02;;;;;;;5.03;58.04;100467.47;5092208;28;20528;-48
2022/01/28 06:48:33;;;;;;;57.88;27.05;;;;;;;5.02;58.49;100478.00;5093791;28;20126;-48
2022/01/28 06:50:59;;;;;;;56.63;25.65;;;;;;;4.99;57.74;100482.50;5093531;28;20486;-48
2022/01/28 06:53:25;;;;;;;62.90;26.10;;;;;;;4.91;57.85;100482.25;5093449;28;20063;-47
2022/01/28 06:55:51;;;;;;;48.53;23.33;;;;;;;4.82;58.03;100476.94;5093423;28;20451;-48
2022/01/28 06:58:16;;;;;;;52.45;23.42;;;;;;;4.79;57.91;100473.63;5093323;28;20017;-48
2022/01/28 07:00:42;;;;;;;52.38;23.08;;;;;;;4.80;57.71;100471.84;5092007;28;20035;-49
2022/01/28 07:03:10;;;;;;;46.58;23.08;;;;;;;4.74;57.81;100474.91;5093354;28;20091;-49
2022/01/28 07:05:36;;;;;;;45.47;24.30;;;;;;;4.68;57.29;100471.00;5091814;28;20401;-47
2022/01/28 07:08:03;;;;;;;47.83;23.77;;;;;;;4.60;57.51;100469.00;5093209;28;20024;-49
2022/01/28 07:10:29;;;;;;;49.08;22.85;;;;;;;4.55;57.35;100470.31;5093098;28;20031;-48
2022/01/28 07:12:55;;;;;;;54.97;24.65;;;;;;;4.50;57.35;100477.63;5091798;28;20024;-48
2022/01/28 07:15:24;;;;;;;54.80;24.33;;;;;;;4.56;57.08;100477.16;5093010;28;20107;-48
2022/01/28 07:17:55;;;;;;;51.67;23.88;;;;;;;4.62;57.40;100487.09;5091703;28;20032;-48
2022/01/28 07:20:21;;;;;;;51.38;24.98;;;;;;;4.59;57.02;100489.94;5092962;28;20024;-47
2022/01/28 07:22:47;;;;;;;51.28;25.55;;;;;;;4.50;56.93;100488.84;5092921;28;20402;-48
2022/01/28 07:25:13;;;;;;;53.78;24.75;;;;;;;4.37;56.98;100486.34;5092771;28;20028;-48
2022/01/28 07:27:39;;;;;;;56.70;23.77;;;;;;;4.29;57.17;100493.09;5092849;28;20497;-48
2022/01/28 07:30:07;;;;;;;47.83;24.17;;;;;;;4.19;57.54;100496.38;5092749;28;20024;-49
2022/01/28 07:32:33;;;;;;;43.90;22.80;;;;;;;4.18;57.52;100499.06;5092727;28;20020;-47
2022/01/28 07:34:58;;;;;;;52.60;24.60;;;;;;;4.13;56.83;100507.22;5091954;28;20020;-48
2022/01/28 07:37:24;;;;;;;49.83;23.38;;;;;;;3.95;57.70;100513.78;5091267;28;20111;-48
2022/01/28 07:39:50;;;;;;;49.63;24.27;;;;;;;3.80;56.96;100518.28;5092568;28;20030;-48
2022/01/28 07:42:17;;;;;;;49.13;23.88;;;;;;;3.67;58.29;100507.97;5092319;28;20048;-48
2022/01/28 07:44:43;;;;;;;59.90;26.10;;;;;;;3.79;58.31;100514.88;5092559;28;20017;-48
2022/01/28 07:47:09;;;;;;;49.40;23.45;;;;;;;3.94;58.20;100510.34;5092391;28;20047;-49
2022/01/28 07:49:35;;;;;;;57.65;24.70;;;;;;;4.07;57.94;100512.88;5092502;28;20016;-47
2022/01/28 07:52:02;;;;;;;63.05;28.67;;;;;;;4.20;58.05;100525.75;5092363;28;20031;-48
2022/01/28 07:54:28;;;;;;;58.40;25.00;;;;;;;4.30;57.86;100525.91;5092402;28;20386;-48
2022/01/28 07:56:54;;;;;;;56.95;25.17;;;;;;;4.32;57.46;100522.25;5091023;28;20039;-49
2022/01/28 07:59:21;;;;;;;59.67;26.00;;;;;;;4.51;57.26;100519.13;5091211;28;20082;-49
2022/01/28 08:01:47;;;;;;;57.03;25.98;;;;;;;4.60;57.18;100512.38;5092253;28;20023;-49
2022/01/28 08:04:13;;;;;;;53.55;24.88;;;;;;;4.62;56.90;100512.28;5092236;28;20020;-48
2022/01/28 08:06:40;;;;;;;58.80;25.05;;;;;;;4.74;56.64;100519.13;5092063;28;20023;-48
2022/01/28 08:09:06;;;;;;;57.63;25.40;;;;;;;4.73;56.76;100525.28;5092119;28;20547;-48
2022/01/28 08:11:32;;;;;;;59.05;25.40;;;;;;;4.67;56.78;100524.00;5092102;28;20790;-49
2022/01/28 08:13:58;;;;;;;50.58;24.02;;;;;;;4.70;56.63;100523.75;5092101;28;20012;-48
2022/01/28 08:16:24;;;;;;;53.22;24.13;;;;;;;4.78;56.21;100523.97;5092010;28;20073;-48
2022/01/28 08:18:50;;;;;;;121.20;47.30;;;;;;;4.80;56.02;100535.09;5092036;28;20024;-48
2022/01/28 08:21:16;;;;;;;98.05;42.85;;;;;;;4.84;56.79;100534.88;5092006;28;20023;-48
2022/01/28 08:23:42;;;;;;;77.78;38.72;;;;;;;4.84;56.58;100538.28;5092020;28;20034;-47
2022/01/28 08:26:08;;;;;;;53.53;26.98;;;;;;;4.71;56.55;100551.41;5091794;28;20123;-48
2022/01/28 08:28:35;;;;;;;62.28;29.55;;;;;;;4.74;56.76;100553.78;5091986;28;20021;-48
2022/01/28 08:31:01;;;;;;;66.82;26.23;;;;;;;4.58;56.97;100554.09;5091845;28;20077;-48
2022/01/28 08:33:28;;;;;;;58.47;27.25;;;;;;;4.62;57.01;100556.47;5091837;28;20031;-49
2022/01/28 08:35:55;;;;;;;59.38;24.95;;;;;;;4.38;56.85;100552.97;5091895;28;20024;-48
2022/01/28 08:38:24;;;;;;;56.58;25.08;;;;;;;4.28;57.87;100548.59;5091885;28;20020;-49
2022/01/28 08:40:55;;;;;;;57.13;25.60;;;;;;;4.27;58.15;100552.97;5091620;28;20551;-48
2022/01/28 08:43:21;;;;;;;54.92;24.15;;;;;;;4.37;58.11;100550.53;5091903;28;20024;-49
2022/01/28 08:45:48;;;;;;;55.45;24.30;;;;;;;4.38;57.75;100549.56;5091694;28;20028;-48
2022/01/28 08:48:14;;;;;;;62.53;25.52;;;;;;;4.33;58.26;100547.31;5095934;28;20035;-47
2022/01/28 08:50:40;;;;;;;51.90;23.50;;;;;;;4.48;58.27;100555.72;5095921;28;20396;-49
2022/01/28 08:53:06;;;;;;;60.47;25.95;;;;;;;4.42;58.36;100560.56;5095799;28;20036;-48
2022/01/28 08:55:32;;;;;;;62.53;27.33;;;;;;;4.32;58.49;100568.22;5095754;28;20024;-47
2022/01/28 08:57:58;;;;;;;59.85;27.48;;;;;;;4.37;59.78;100572.13;5095802;28;20111;-48
2022/01/28 09:00:24;;;;;;;167.75;125.53;;;;;;;4.55;58.76;100580.34;5095624;28;20607;-49
2022/01/28 09:02:50;;;;;;;95.97;53.70;;;;;;;4.52;59.63;100579.72;5094326;28;20032;-48
2022/01/28 09:05:17;;;;;;;93.22;55.05;;;;;;;4.67;59.13;100585.56;5094202;28;20077;-48
2022/01/28 09:07:43;;;;;;;77.60;39.33;;;;;;;4.53;59.07;100587.44;5094248;28;20536;-48
2022/01/28 09:10:18;;;;;;;84.20;41.38;;;;;;;4.34;60.20;100592.31;5094100;28;20020;-48
2022/01/28 09:12:59;;;;;;;97.97;52.72;;;;;;;4.42;60.87;100586.56;5095520;28;20035;-47
2022/01/28 09:15:25;;;;;;;86.10;43.58;;;;;;;4.43;60.40;100596.00;5095682;28;20042;-48
2022/01/28 09:17:51;;;;;;;104.05;52.72;;;;;;;4.35;61.06;100599.19;5095401;28;20017;-48
2022/01/28 09:20:17;;;;;;;103.57;58.67;;;;;;;4.22;61.19;100601.84;5095294;28;20510;-47
2022/01/28 09:22:43;;;;;;;85.03;37.35;;;;;;;4.11;61.13;100613.03;5093926;28;20486;-48
2022/01/28 09:25:09;;;;;;;76.82;32.58;;;;;;;4.07;61.99;100623.75;5095068;28;20394;-47
2022/01/28 09:27:34;;;;;;;73.72;32.97;;;;;;;4.16;62.27;100626.50;5095168;28;20024;-47
2022/01/28 09:30:00;;;;;;;60.78;29.40;;;;;;;4.18;62.20;100629.81;5095064;28;20578;-46
2022/01/28 09:32:26;;;;;;;102.78;47.33;;;;;;;4.23;62.21;100624.31;5093720;28;20086;-47
2022/01/28 09:34:52;;;;;;;85.75;38.80;;;;;;;4.36;62.54;100629.44;5095011;28;20143;-47
2022/01/28 09:37:18;;;;;;;85.93;35.72;;;;;;;4.57;62.75;100629.63;5093625;28;20023;-47
2022/01/28 09:39:45;;;;;;;71.15;33.10;;;;;;;4.83;62.08;100619.91;5094902;28;20028;-47
2022/01/28 09:42:16;;;;;;;76.32;39.92;;;;;;;4.96;61.96;100631.00;5094492;28;20058;-46
2022/01/28 09:44:43;;;;;;;74.28;41.22;;;;;;;5.20;62.32;100632.72;5095176;28;20036;-47
2022/01/28 09:47:11;;;;;;;83.43;37.13;;;;;;;5.39;61.39;100629.50;5094712;28;20039;-47
2022/01/28 09:49:41;;;;;;;86.78;44.72;;;;;;;5.50;61.77;100632.13;5094751;28;20395;-47
2022/01/28 09:52:10;;;;;;;86.47;47.40;;;;;;;5.65;61.48;100632.69;5094649;28;20032;-47
2022/01/28 09:54:37;;;;;;;98.78;47.50;;;;;;;5.83;61.44;100634.78;5094606;28;20035;-48
2022/01/28 09:57:04;;;;;;;66.35;34.92;;;;;;;6.10;61.09;100650.06;5094795;28;20032;-47
2022/01/28 09:59:31;;;;;;;77.97;37.47;;;;;;;6.24;60.47;100656.75;5093742;28;20024;-46
2022/01/28 10:01:57;;;;;;;62.00;29.92;;;;;;;6.18;59.99;100660.69;5094491;28;20398;-47
2022/01/28 10:04:23;;;;;;;71.20;28.15;;;;;;;6.11;60.28;100662.13;5094388;28;20035;-47
2022/01/28 10:06:49;;;;;;;66.80;34.22;;;;;;;5.96;59.69;100658.97;5094389;28;20464;-47
2022/01/28 10:09:18;;;;;;;58.97;31.08;;;;;;;5.93;60.75;100656.56;5094414;28;20020;-47
2022/01/28 10:11:48;;;;;;;65.32;26.85;;;;;;;6.14;61.18;100678.38;5094320;28;20050;-47
2022/01/28 10:14:17;;;;;;;47.55;22.20;;;;;;;6.24;60.06;100683.66;5094233;28;20024;-47
2022/01/28 10:16:58;;;;;;;49.50;22.30;;;;;;;6.02;59.57;100684.56;5094212;28;20493;-47
2022/01/28 10:19:36;;;;;;;44.58;21.88;;;;;;;5.96;59.56;100679.81;5094234;28;20110;-48
2022/01/28 10:22:02;;;;;;;43.53;21.95;;;;;;;6.05;60.08;100686.91;5094149;28;20028;-48
2022/01/28 10:24:28;;;;;;;43.88;22.15;;;;;;;6.24;59.92;100691.50;5092759;28;20031;-47
2022/01/28 10:27:05;;;;;;;45.28;22.15;;;;;;;6.39;59.03;100690.25;5093809;28;20047;-47
2022/01/28 10:29:41;;;;;;;48.35;21.42;;;;;;;6.53;59.17;100683.91;5094059;28;20420;-47
2022/01/28 10:32:12;;;;;;;44.45;20.40;;;;;;;6.62;58.61;100690.19;5092622;28;20032;-47
2022/01/28 10:34:45;;;;;;;36.28;17.40;;;;;;;6.45;58.70;100688.94;5093945;28;20032;-47
2022/01/28 10:37:25;;;;;;;33.03;16.00;;;;;;;6.47;59.28;100686.19;5093829;28;20493;-47
2022/01/28 10:39:52;;;;;;;26.98;15.02;;;;;;;6.54;58.44;100684.75;5093812;28;20024;-47
2022/01/28 10:42:41;;;;;;;28.20;13.60;;;;;;;6.68;58.16;100687.06;5093465;28;20067;-47
2022/01/28 10:45:13;;;;;;;28.80;14.57;;;;;;;6.72;57.79;100685.03;5093638;28;20038;-47
2022/01/28 10:47:53;;;;;;;24.58;13.13;;;;;;;6.80;57.30;100690.44;5093703;28;20067;-47
2022/01/28 10:50:36;;;;;;;28.00;13.18;;;;;;;6.94;57.65;100686.69;5093614;28;20024;-47
2022/01/28 10:53:10;;;;;;;22.60;12.18;;;;;;;7.18;57.01;100681.19;5092222;28;20034;-47
2022/01/28 10:55:57;;;;;;;18.90;10.98;;;;;;;7.33;57.15;100679.91;5093456;28;20020;-47
2022/01/28 10:58:28;;;;;;;16.42;8.85;;;;;;;7.39;56.46;100673.34;5092096;28;20460;-47
2022/01/28 11:00:59;;;;;;;24.55;13.82;;;;;;;7.33;56.42;100660.81;5093489;28;20027;-48
2022/01/28 11:03:26;;;;;;;21.77;9.45;;;;;;;7.36;55.81;100650.94;5093341;28;20027;-48
2022/01/28 11:05:59;;;;;;;18.80;10.10;;;;;;;7.44;55.65;100642.44;5093157;28;20482;-47
2022/01/28 11:08:26;;;;;;;26.75;10.38;;;;;;;7.46;55.66;100637.91;5093238;28;20027;-47
2022/01/28 11:10:52;;;;;;;16.17;9.05;;;;;;;7.41;55.79;100634.88;5093199;28;20333;-47
2022/01/28 11:13:18;;;;;;;15.30;9.43;;;;;;;7.33;55.46;100635.50;5091825;28;20024;-47
2022/01/28 11:15:45;;;;;;;16.10;9.55;;;;;;;7.22;56.58;100642.59;5091755;28;20536;-48
2022/01/28 11:18:11;;;;;;;25.80;10.73;;;;;;;7.29;56.44;100646.38;5093035;28;20032;-47
2022/01/28 11:20:43;;;;;;;21.00;14.15;;;;;;;7.22;56.00;100643.44;5091611;28;20451;-47
2022/01/28 11:23:23;;;;;;;15.27;10.18;;;;;;;7.25;57.01;100644.97;5092987;28;20150;-47
2022/01/28 11:26:14;;;;;;;41.08;31.88;;;;;;;7.23;57.17;100641.66;5092886;28;20075;-47
2022/01/28 11:28:56;;;;;;;41.47;33.42;;;;;;;7.20;57.28;100637.50;5091560;28;20036;-47
2022/01/28 11:31:41;;;;;;;35.83;28.45;;;;;;;7.14;56.66;100628.44;5074868;28;20043;-47
2022/01/28 11:34:27;;;;;;;34.53;26.17;;;;;;;7.16;56.83;100628.28;5091442;28;20393;-47
2022/01/28 11:36:56;;;;;;;50.65;41.22;;;;;;;7.17;56.50;100624.72;5091412;28;20042;-47
2022/01/28 11:39:30;;;;;;;36.05;29.02;;;;;;;7.22;57.32;100622.53;5091490;28;20505;-47
2022/01/28 11:42:22;;;;;;;27.73;21.23;;;;;;;7.32;56.58;100612.97;5090983;28;20504;-46
2022/01/28 11:44:54;;;;;;;43.22;38.35;;;;;;;7.53;56.16;100625.16;5092638;28;20036;-48
2022/01/28 11:47:25;;;;;;;37.38;27.10;;;;;;;7.66;56.82;100617.88;5092351;28;20024;-46
2022/01/28 11:50:00;;;;;;;33.80;23.77;;;;;;;7.74;55.95;100612.81;5091234;28;20035;-47
2022/01/28 11:52:29;;;;;;;19.75;11.90;;;;;;;7.82;55.38;100603.47;5092506;28;20031;-48
2022/01/28 11:54:56;;;;;;;21.20;9.90;;;;;;;7.85;55.46;100606.66;5092400;28;20020;-47
2022/01/28 11:57:26;;;;;;;20.35;11.00;;;;;;;7.83;55.30;100602.50;5091013;28;20401;-48
2022/01/28 12:00:12;;;;;;;33.22;24.17;;;;;;;7.74;55.11;100597.13;5092298;28;20070;-48
2022/01/28 12:02:45;;;;;;;;;;;;;;;7.79;55.55;100599.34;5092618;28;20092;-48
2022/01/28 12:05:29;;;;;;;19.58;10.63;;;;;;;7.78;55.05;100592.47;5092178;28;19908;-47
2022/01/28 12:07:56;;;;;;;19.58;14.05;;;;;;;7.74;55.89;100604.16;5090956;28;20421;-48
2022/01/28 12:10:27;;;;;;;19.35;11.38;;;;;;;7.63;55.94;100593.81;5092144;28;20473;-48
2022/01/28 12:12:59;;;;;;;19.70;13.27;;;;;;;7.64;55.92;100587.63;5090855;28;20032;-48
2022/01/28 12:15:30;;;;;;;20.15;15.00;;;;;;;7.57;56.05;100587.34;5092101;28;20024;-47
2022/01/28 12:18:11;;;;;;;44.83;36.47;;;;;;;7.62;55.60;100586.94;5092119;28;20033;-48
2022/01/28 12:20:43;;;;;;;19.55;15.18;;;;;;;7.57;55.37;100585.56;5090474;28;20512;-48
2022/01/28 12:23:11;;;;;;;22.25;17.90;;;;;;;7.60;55.74;100585.25;5090690;28;20035;-47
2022/01/28 12:25:37;;;;;;;16.70;10.30;;;;;;;7.72;55.76;100569.50;5090591;28;20367;-47
2022/01/28 12:28:33;;;;;;;15.43;9.85;;;;;;;7.68;55.79;100576.75;5090573;28;20032;-47
2022/01/28 12:31:07;;;;;;;13.63;8.50;;;;;;;7.67;55.82;100577.75;5091956;28;20405;-48
2022/01/28 12:33:40;;;;;;;19.50;14.63;;;;;;;7.67;55.86;100574.31;5091933;28;20074;-48
2022/01/28 12:36:08;;;;;;;17.70;9.20;;;;;;;7.67;55.87;100569.91;5090507;28;20020;-48
2022/01/28 12:38:41;;;;;;;14.93;10.10;;;;;;;7.58;55.67;100571.50;5091878;28;20020;-48
2022/01/28 12:41:09;;;;;;;17.42;9.40;;;;;;;7.46;55.51;100566.53;5090208;28;20081;-47
2022/01/28 12:43:38;;;;;;;19.58;9.52;;;;;;;7.30;56.27;100582.72;5091883;28;20024;-49
2022/01/28 12:46:09;;;;;;;16.30;8.80;;;;;;;7.26;56.23;100566.47;5090284;28;20409;-48